sensor_id;sensor_type;location;lat;lon;timestamp;temperature;humidity
14475;DHT22;7323;50.848;4.334;2023-02-28T00:00:31;2.70;1.00
14475;DHT22;7323;50.848;4.334;2023-02-28T00:03:00;2.70;1.00
14475;DHT22;7323;50.848;4.334;2023-02-28T00:05:28;2.70;1.00
14475;DHT22;7323;50.848;4.334;2023-02-28T00:07:56;2.70;1.00
14475;DHT22;7323;50.848;4.334;2023-02-28T00:10:26;2.80;1.00
14475;DHT22;7323;50.848;4.334;2023-02-28T00:13:05;2.80;1.00
14475;DHT22;7323;50.848;4.334;2023-02-28T00:15:35;2.80;1.00
14475;DHT22;7323;50.848;4.334;2023-02-28T00:18:07;2.80;1.00
14475;DHT22;7323;50.848;4.334;2023-02-28T00:20:33;2.70;1.00
14475;DHT22;7323;50.848;4.334;2023-02-28T00:23:03;2.80;1.00
14475;DHT22;7323;50.848;4.334;2023-02-28T00:25:29;2.70;1.00
14475;DHT22;7323;50.848;4.334;2023-02-28T00:27:55;2.70;1.00
14475;DHT22;7323;50.848;4.334;2023-02-28T00:30:22;2.60;1.00
14475;DHT22;7323;50.848;4.334;2023-02-28T00:32:49;2.50;1.00
14475;DHT22;7323;50.848;4.334;2023-02-28T00:35:19;2.60;1.00
14475;DHT22;7323;50.848;4.334;2023-02-28T00:37:47;2.50;1.00
14475;DHT22;7323;50.848;4.334;2023-02-28T00:40:16;2.40;1.00
14475;DHT22;7323;50.848;4.334;2023-02-28T00:42:45;2.40;1.00
14475;DHT22;7323;50.848;4.334;2023-02-28T00:45:10;2.40;1.00
14475;DHT22;7323;50.848;4.334;2023-02-28T00:47:51;2.40;1.00
14475;DHT22;7323;50.848;4.334;2023-02-28T00:50:19;2.40;1.00
14475;DHT22;7323;50.848;4.334;2023-02-28T00:52:49;2.40;1.00
14475;DHT22;7323;50.848;4.334;2023-02-28T00:55:39;2.40;1.00
14475;DHT22;7323;50.848;4.334;2023-02-28T00:58:06;2.40;1.00
14475;DHT22;7323;50.848;4.334;2023-02-28T01:00:32;2.40;1.00
14475;DHT22;7323;50.848;4.334;2023-02-28T01:03:00;2.40;1.00
14475;DHT22;7323;50.848;4.334;2023-02-28T01:05:29;2.40;1.00
14475;DHT22;7323;50.848;4.334;2023-02-28T01:07:56;2.30;1.00
14475;DHT22;7323;50.848;4.334;2023-02-28T01:10:21;2.30;1.00
14475;DHT22;7323;50.848;4.334;2023-02-28T01:12:47;2.40;1.00
14475;DHT22;7323;50.848;4.334;2023-02-28T01:15:16;2.10;1.00
14475;DHT22;7323;50.848;4.334;2023-02-28T01:17:41;2.10;1.00
14475;DHT22;7323;50.848;4.334;2023-02-28T01:20:08;2.10;1.00
14475;DHT22;7323;50.848;4.334;2023-02-28T01:22:37;2.10;1.00
14475;DHT22;7323;50.848;4.334;2023-02-28T01:25:03;2.10;1.00
14475;DHT22;7323;50.848;4.334;2023-02-28T01:27:36;2.00;1.00
14475;DHT22;7323;50.848;4.334;2023-02-28T01:30:03;2.00;1.00
14475;DHT22;7323;50.848;4.334;2023-02-28T01:32:32;2.00;1.00
14475;DHT22;7323;50.848;4.334;2023-02-28T01:34:57;2.00;1.00
14475;DHT22;7323;50.848;4.334;2023-02-28T01:37:24;2.00;1.00
14475;DHT22;7323;50.848;4.334;2023-02-28T01:39:49;2.00;1.00
14475;DHT22;7323;50.848;4.334;2023-02-28T01:42:23;2.00;1.00
14475;DHT22;7323;50.848;4.334;2023-02-28T01:47:42;1.90;1.00
14475;DHT22;7323;50.848;4.334;2023-02-28T01:50:18;1.90;1.00
14475;DHT22;7323;50.848;4.334;2023-02-28T01:52:45;1.90;1.00
14475;DHT22;7323;50.848;4.334;2023-02-28T01:55:13;1.90;1.00
14475;DHT22;7323;50.848;4.334;2023-02-28T01:57:46;2.00;1.00
14475;DHT22;7323;50.848;4.334;2023-02-28T02:00:20;2.00;1.00
14475;DHT22;7323;50.848;4.334;2023-02-28T02:02:51;1.90;1.00
14475;DHT22;7323;50.848;4.334;2023-02-28T02:05:52;2.00;1.00
14475;DHT22;7323;50.848;4.334;2023-02-28T02:08:31;1.90;1.00
14475;DHT22;7323;50.848;4.334;2023-02-28T02:11:03;1.90;1.00
14475;DHT22;7323;50.848;4.334;2023-02-28T02:17:14;1.80;1.00
14475;DHT22;7323;50.848;4.334;2023-02-28T02:28:53;1.80;1.00
14475;DHT22;7323;50.848;4.334;2023-02-28T02:37:24;1.60;1.00
14475;DHT22;7323;50.848;4.334;2023-02-28T02:42:49;1.60;1.00
14475;DHT22;7323;50.848;4.334;2023-02-28T02:46:16;1.60;1.00
14475;DHT22;7323;50.848;4.334;2023-02-28T02:48:29;1.50;1.00
14475;DHT22;7323;50.848;4.334;2023-02-28T02:51:17;1.60;1.00
14475;DHT22;7323;50.848;4.334;2023-02-28T02:54:11;1.50;1.00
14475;DHT22;7323;50.848;4.334;2023-02-28T02:56:48;1.40;1.00
14475;DHT22;7323;50.848;4.334;2023-02-28T02:59:18;1.40;1.00
14475;DHT22;7323;50.848;4.334;2023-02-28T03:01:50;1.40;1.00
14475;DHT22;7323;50.848;4.334;2023-02-28T03:04:22;1.40;1.00
14475;DHT22;7323;50.848;4.334;2023-02-28T03:07:12;1.30;1.00
14475;DHT22;7323;50.848;4.334;2023-02-28T03:09:51;1.30;1.00
14475;DHT22;7323;50.848;4.334;2023-02-28T03:12:23;1.40;1.00
14475;DHT22;7323;50.848;4.334;2023-02-28T03:15:19;1.30;1.00
14475;DHT22;7323;50.848;4.334;2023-02-28T03:20:35;1.30;1.00
14475;DHT22;7323;50.848;4.334;2023-02-28T03:23:27;1.20;1.00
14475;DHT22;7323;50.848;4.334;2023-02-28T03:26:13;1.20;1.00
14475;DHT22;7323;50.848;4.334;2023-02-28T03:29:21;1.20;1.00
14475;DHT22;7323;50.848;4.334;2023-02-28T03:35:11;1.20;1.00
14475;DHT22;7323;50.848;4.334;2023-02-28T03:37:47;1.20;1.00
14475;DHT22;7323;50.848;4.334;2023-02-28T03:40:17;1.20;1.00
14475;DHT22;7323;50.848;4.334;2023-02-28T03:42:51;1.20;1.00
14475;DHT22;7323;50.848;4.334;2023-02-28T03:45:30;1.20;1.00
14475;DHT22;7323;50.848;4.334;2023-02-28T03:50:42;1.30;1.00
14475;DHT22;7323;50.848;4.334;2023-02-28T03:53:24;1.20;1.00
14475;DHT22;7323;50.848;4.334;2023-02-28T03:55:58;1.20;1.00
14475;DHT22;7323;50.848;4.334;2023-02-28T04:01:24;1.20;1.00
14475;DHT22;7323;50.848;4.334;2023-02-28T04:03:53;1.20;1.00
14475;DHT22;7323;50.848;4.334;2023-02-28T04:06:21;1.10;1.00
14475;DHT22;7323;50.848;4.334;2023-02-28T04:08:49;1.10;1.00
14475;DHT22;7323;50.848;4.334;2023-02-28T04:11:24;1.00;1.00
14475;DHT22;7323;50.848;4.334;2023-02-28T04:13:52;1.10;1.00
14475;DHT22;7323;50.848;4.334;2023-02-28T04:16:19;1.00;1.00
14475;DHT22;7323;50.848;4.334;2023-02-28T04:18:46;1.10;1.00
14475;DHT22;7323;50.848;4.334;2023-02-28T04:24:36;1.20;1.00
14475;DHT22;7323;50.848;4.334;2023-02-28T04:27:17;1.20;1.00
14475;DHT22;7323;50.848;4.334;2023-02-28T04:29:52;1.20;1.00
14475;DHT22;7323;50.848;4.334;2023-02-28T04:32:17;1.30;1.00
14475;DHT22;7323;50.848;4.334;2023-02-28T04:34:54;1.20;1.00
14475;DHT22;7323;50.848;4.334;2023-02-28T04:37:21;1.20;1.00
14475;DHT22;7323;50.848;4.334;2023-02-28T04:39:57;1.10;1.00
14475;DHT22;7323;50.848;4.334;2023-02-28T04:42:22;1.10;1.00
14475;DHT22;7323;50.848;4.334;2023-02-28T04:44:48;1.10;1.00
14475;DHT22;7323;50.848;4.334;2023-02-28T04:47:18;1.00;1.00
14475;DHT22;7323;50.848;4.334;2023-02-28T04:49:44;1.10;1.00
14475;DHT22;7323;50.848;4.334;2023-02-28T04:52:14;1.10;1.00
14475;DHT22;7323;50.848;4.334;2023-02-28T04:54:50;1.10;1.00
14475;DHT22;7323;50.848;4.334;2023-02-28T04:57:16;1.10;1.00
14475;DHT22;7323;50.848;4.334;2023-02-28T04:59:43;1.00;1.00
14475;DHT22;7323;50.848;4.334;2023-02-28T05:02:12;1.00;1.00
14475;DHT22;7323;50.848;4.334;2023-02-28T05:04:44;1.00;1.00
14475;DHT22;7323;50.848;4.334;2023-02-28T05:07:10;1.00;1.00
14475;DHT22;7323;50.848;4.334;2023-02-28T05:09:36;1.00;1.00
14475;DHT22;7323;50.848;4.334;2023-02-28T05:12:01;1.10;1.00
14475;DHT22;7323;50.848;4.334;2023-02-28T05:14:55;1.20;1.00
14475;DHT22;7323;50.848;4.334;2023-02-28T05:17:21;1.20;1.00
14475;DHT22;7323;50.848;4.334;2023-02-28T05:19:50;1.20;1.00
14475;DHT22;7323;50.848;4.334;2023-02-28T05:25:21;1.20;1.00
14475;DHT22;7323;50.848;4.334;2023-02-28T05:27:48;1.10;1.00
14475;DHT22;7323;50.848;4.334;2023-02-28T05:30:19;1.20;1.00
14475;DHT22;7323;50.848;4.334;2023-02-28T05:33:12;1.20;1.00
14475;DHT22;7323;50.848;4.334;2023-02-28T05:35:50;1.20;1.00
14475;DHT22;7323;50.848;4.334;2023-02-28T05:38:25;1.30;1.00
14475;DHT22;7323;50.848;4.334;2023-02-28T05:40:56;1.30;1.00
14475;DHT22;7323;50.848;4.334;2023-02-28T05:43:29;1.30;1.00
14475;DHT22;7323;50.848;4.334;2023-02-28T05:46:17;1.30;1.00
14475;DHT22;7323;50.848;4.334;2023-02-28T05:48:46;1.40;1.00
14475;DHT22;7323;50.848;4.334;2023-02-28T05:51:14;1.30;1.00
14475;DHT22;7323;50.848;4.334;2023-02-28T05:53:41;1.30;1.00
14475;DHT22;7323;50.848;4.334;2023-02-28T05:56:06;1.20;1.00
14475;DHT22;7323;50.848;4.334;2023-02-28T05:58:33;1.30;1.00
14475;DHT22;7323;50.848;4.334;2023-02-28T06:01:30;1.30;1.00
14475;DHT22;7323;50.848;4.334;2023-02-28T06:07:24;1.30;1.00
14475;DHT22;7323;50.848;4.334;2023-02-28T06:09:49;1.30;1.00
14475;DHT22;7323;50.848;4.334;2023-02-28T06:12:16;1.30;1.00
14475;DHT22;7323;50.848;4.334;2023-02-28T06:15:03;1.30;1.00
14475;DHT22;7323;50.848;4.334;2023-02-28T06:17:30;1.30;1.00
14475;DHT22;7323;50.848;4.334;2023-02-28T06:19:59;1.40;1.00
14475;DHT22;7323;50.848;4.334;2023-02-28T06:22:24;1.40;1.00
14475;DHT22;7323;50.848;4.334;2023-02-28T06:24:58;1.40;1.00
14475;DHT22;7323;50.848;4.334;2023-02-28T06:27:37;1.40;1.00
14475;DHT22;7323;50.848;4.334;2023-02-28T06:30:23;1.40;1.00
14475;DHT22;7323;50.848;4.334;2023-02-28T06:32:51;1.50;1.00
14475;DHT22;7323;50.848;4.334;2023-02-28T06:35:23;1.40;1.00
14475;DHT22;7323;50.848;4.334;2023-02-28T06:38:01;1.50;1.00
14475;DHT22;7323;50.848;4.334;2023-02-28T06:40:42;1.50;1.00
14475;DHT22;7323;50.848;4.334;2023-02-28T06:43:23;1.50;1.00
14475;DHT22;7323;50.848;4.334;2023-02-28T06:45:56;1.80;1.00
14475;DHT22;7323;50.848;4.334;2023-02-28T06:48:33;1.60;1.00
14475;DHT22;7323;50.848;4.334;2023-02-28T06:51:09;1.70;1.00
14475;DHT22;7323;50.848;4.334;2023-02-28T06:53:36;1.80;1.00
14475;DHT22;7323;50.848;4.334;2023-02-28T06:56:11;1.90;1.00
14475;DHT22;7323;50.848;4.334;2023-02-28T06:58:41;1.90;1.00
14475;DHT22;7323;50.848;4.334;2023-02-28T07:01:10;1.90;1.00
14475;DHT22;7323;50.848;4.334;2023-02-28T07:03:38;1.80;1.00
14475;DHT22;7323;50.848;4.334;2023-02-28T07:06:07;1.70;1.00
14475;DHT22;7323;50.848;4.334;2023-02-28T07:08:35;1.80;1.00
14475;DHT22;7323;50.848;4.334;2023-02-28T07:11:02;1.80;1.00
14475;DHT22;7323;50.848;4.334;2023-02-28T07:13:28;1.90;1.00
14475;DHT22;7323;50.848;4.334;2023-02-28T07:16:03;1.90;1.00
14475;DHT22;7323;50.848;4.334;2023-02-28T07:18:40;2.00;1.00
14475;DHT22;7323;50.848;4.334;2023-02-28T07:21:09;2.10;1.00
14475;DHT22;7323;50.848;4.334;2023-02-28T07:23:38;2.10;1.00
14475;DHT22;7323;50.848;4.334;2023-02-28T07:26:10;2.10;1.00
14475;DHT22;7323;50.848;4.334;2023-02-28T07:28:37;2.10;1.00
14475;DHT22;7323;50.848;4.334;2023-02-28T07:31:08;2.20;1.00
14475;DHT22;7323;50.848;4.334;2023-02-28T07:33:34;2.30;1.00
14475;DHT22;7323;50.848;4.334;2023-02-28T07:36:11;2.20;1.00
14475;DHT22;7323;50.848;4.334;2023-02-28T07:38:45;2.20;1.00
14475;DHT22;7323;50.848;4.334;2023-02-28T07:41:20;2.40;1.00
14475;DHT22;7323;50.848;4.334;2023-02-28T07:43:47;2.50;1.00
14475;DHT22;7323;50.848;4.334;2023-02-28T07:46:15;2.60;1.00
14475;DHT22;7323;50.848;4.334;2023-02-28T07:48:47;2.60;1.00
14475;DHT22;7323;50.848;4.334;2023-02-28T07:51:15;2.60;1.00
14475;DHT22;7323;50.848;4.334;2023-02-28T07:53:42;2.70;1.00
14475;DHT22;7323;50.848;4.334;2023-02-28T07:56:08;2.60;1.00
14475;DHT22;7323;50.848;4.334;2023-02-28T07:58:37;2.70;1.00
14475;DHT22;7323;50.848;4.334;2023-02-28T08:01:12;2.80;1.00
14475;DHT22;7323;50.848;4.334;2023-02-28T08:03:41;2.70;1.00
14475;DHT22;7323;50.848;4.334;2023-02-28T08:06:14;2.90;1.00
14475;DHT22;7323;50.848;4.334;2023-02-28T08:08:44;2.90;1.00
14475;DHT22;7323;50.848;4.334;2023-02-28T08:11:10;2.90;1.00
14475;DHT22;7323;50.848;4.334;2023-02-28T08:13:35;3.00;1.00
14475;DHT22;7323;50.848;4.334;2023-02-28T08:16:02;3.00;99.90
14475;DHT22;7323;50.848;4.334;2023-02-28T08:18:28;3.10;99.90
14475;DHT22;7323;50.848;4.334;2023-02-28T08:20:54;3.10;1.00
14475;DHT22;7323;50.848;4.334;2023-02-28T08:23:31;3.30;99.90
14475;DHT22;7323;50.848;4.334;2023-02-28T08:25:58;3.40;99.90
14475;DHT22;7323;50.848;4.334;2023-02-28T08:28:30;3.20;1.00
14475;DHT22;7323;50.848;4.334;2023-02-28T08:30:55;3.40;1.00
14475;DHT22;7323;50.848;4.334;2023-02-28T08:33:22;3.50;1.00
14475;DHT22;7323;50.848;4.334;2023-02-28T08:35:56;3.40;1.00
14475;DHT22;7323;50.848;4.334;2023-02-28T08:38:23;3.50;99.90
14475;DHT22;7323;50.848;4.334;2023-02-28T08:40:49;3.50;1.00
14475;DHT22;7323;50.848;4.334;2023-02-28T08:43:16;3.60;99.90
14475;DHT22;7323;50.848;4.334;2023-02-28T08:45:42;4.00;1.00
14475;DHT22;7323;50.848;4.334;2023-02-28T08:48:07;3.70;99.90
14475;DHT22;7323;50.848;4.334;2023-02-28T08:50:33;3.60;99.90
14475;DHT22;7323;50.848;4.334;2023-02-28T08:53:03;3.60;99.90
14475;DHT22;7323;50.848;4.334;2023-02-28T08:55:30;3.60;1.00
14475;DHT22;7323;50.848;4.334;2023-02-28T08:57:59;3.60;1.00
14475;DHT22;7323;50.848;4.334;2023-02-28T09:00:28;3.60;1.00
14475;DHT22;7323;50.848;4.334;2023-02-28T09:02:57;3.70;1.00
14475;DHT22;7323;50.848;4.334;2023-02-28T09:05:22;3.70;1.00
14475;DHT22;7323;50.848;4.334;2023-02-28T09:07:51;3.80;1.00
14475;DHT22;7323;50.848;4.334;2023-02-28T09:10:17;3.80;99.90
14475;DHT22;7323;50.848;4.334;2023-02-28T09:12:42;3.70;99.90
14475;DHT22;7323;50.848;4.334;2023-02-28T09:15:11;3.80;99.90
14475;DHT22;7323;50.848;4.334;2023-02-28T09:17:39;3.80;99.90
14475;DHT22;7323;50.848;4.334;2023-02-28T09:20:06;3.70;1.00
14475;DHT22;7323;50.848;4.334;2023-02-28T09:22:31;3.80;99.90
14475;DHT22;7323;50.848;4.334;2023-02-28T09:25:06;3.90;1.00
14475;DHT22;7323;50.848;4.334;2023-02-28T09:27:34;3.90;99.90
14475;DHT22;7323;50.848;4.334;2023-02-28T09:30:00;3.80;1.00
14475;DHT22;7323;50.848;4.334;2023-02-28T09:32:26;3.70;99.90
14475;DHT22;7323;50.848;4.334;2023-02-28T09:34:52;3.80;1.00
14475;DHT22;7323;50.848;4.334;2023-02-28T09:37:19;3.80;1.00
14475;DHT22;7323;50.848;4.334;2023-02-28T09:39:47;3.80;28.20
14475;DHT22;7323;50.848;4.334;2023-02-28T09:42:31;3.90;1.00
14475;DHT22;7323;50.848;4.334;2023-02-28T09:45:37;3.80;1.00
14475;DHT22;7323;50.848;4.334;2023-02-28T09:48:14;3.80;99.90
14475;DHT22;7323;50.848;4.334;2023-02-28T09:53:42;4.20;99.90
14475;DHT22;7323;50.848;4.334;2023-02-28T09:56:14;4.20;1.00
14475;DHT22;7323;50.848;4.334;2023-02-28T09:58:58;4.00;99.90
14475;DHT22;7323;50.848;4.334;2023-02-28T10:02:00;4.10;1.00
14475;DHT22;7323;50.848;4.334;2023-02-28T10:10:07;4.00;1.00
14475;DHT22;7323;50.848;4.334;2023-02-28T10:12:44;4.00;1.00
14475;DHT22;7323;50.848;4.334;2023-02-28T10:15:15;4.00;1.00
14475;DHT22;7323;50.848;4.334;2023-02-28T10:17:44;4.00;1.00
14475;DHT22;7323;50.848;4.334;2023-02-28T10:20:19;4.10;1.00
14475;DHT22;7323;50.848;4.334;2023-02-28T10:25:39;4.20;99.90
14475;DHT22;7323;50.848;4.334;2023-02-28T10:28:11;4.20;1.00
14475;DHT22;7323;50.848;4.334;2023-02-28T10:30:45;4.40;1.00
14475;DHT22;7323;50.848;4.334;2023-02-28T10:33:22;4.30;1.00
14475;DHT22;7323;50.848;4.334;2023-02-28T10:35:48;4.30;1.00
14475;DHT22;7323;50.848;4.334;2023-02-28T10:38:32;4.20;99.90
14475;DHT22;7323;50.848;4.334;2023-02-28T10:41:09;4.30;99.90
14475;DHT22;7323;50.848;4.334;2023-02-28T10:43:43;4.30;99.90
14475;DHT22;7323;50.848;4.334;2023-02-28T10:46:16;4.40;1.00
14475;DHT22;7323;50.848;4.334;2023-02-28T10:49:29;4.40;99.90
14475;DHT22;7323;50.848;4.334;2023-02-28T10:52:03;4.20;99.90
14475;DHT22;7323;50.848;4.334;2023-02-28T10:54:37;4.30;99.90
14475;DHT22;7323;50.848;4.334;2023-02-28T10:57:15;4.30;99.90
14475;DHT22;7323;50.848;4.334;2023-02-28T10:59:42;4.40;99.90
14475;DHT22;7323;50.848;4.334;2023-02-28T11:02:34;4.60;99.90
14475;DHT22;7323;50.848;4.334;2023-02-28T11:05:02;4.80;99.90
14475;DHT22;7323;50.848;4.334;2023-02-28T11:07:34;4.90;99.90
14475;DHT22;7323;50.848;4.334;2023-02-28T11:10:16;4.80;99.90
14475;DHT22;7323;50.848;4.334;2023-02-28T11:13:02;4.90;99.90
14475;DHT22;7323;50.848;4.334;2023-02-28T11:15:57;5.10;99.90
14475;DHT22;7323;50.848;4.334;2023-02-28T11:21:06;5.10;99.90
14475;DHT22;7323;50.848;4.334;2023-02-28T11:23:36;5.00;99.90
14475;DHT22;7323;50.848;4.334;2023-02-28T11:26:04;5.00;99.90
14475;DHT22;7323;50.848;4.334;2023-02-28T11:28:40;5.20;99.90
14475;DHT22;7323;50.848;4.334;2023-02-28T11:33:56;4.90;99.90
14475;DHT22;7323;50.848;4.334;2023-02-28T11:36:27;5.00;99.90
14475;DHT22;7323;50.848;4.334;2023-02-28T11:38:55;5.00;99.90
14475;DHT22;7323;50.848;4.334;2023-02-28T11:44:39;5.10;99.90
14475;DHT22;7323;50.848;4.334;2023-02-28T11:47:31;5.20;99.90
14475;DHT22;7323;50.848;4.334;2023-02-28T11:53:21;5.00;99.90
14475;DHT22;7323;50.848;4.334;2023-02-28T11:56:03;4.80;99.90
14475;DHT22;7323;50.848;4.334;2023-02-28T12:04:32;5.00;99.90
14475;DHT22;7323;50.848;4.334;2023-02-28T12:07:09;5.00;99.90
14475;DHT22;7323;50.848;4.334;2023-02-28T12:13:01;5.10;99.90
14475;DHT22;7323;50.848;4.334;2023-02-28T12:15:36;5.30;99.90
14475;DHT22;7323;50.848;4.334;2023-02-28T12:20:52;5.50;99.90
14475;DHT22;7323;50.848;4.334;2023-02-28T12:23:44;5.40;99.90
14475;DHT22;7323;50.848;4.334;2023-02-28T12:28:57;5.30;99.90
14475;DHT22;7323;50.848;4.334;2023-02-28T12:31:28;5.40;99.90
14475;DHT22;7323;50.848;4.334;2023-02-28T12:34:04;5.30;99.90
14475;DHT22;7323;50.848;4.334;2023-02-28T12:36:35;5.30;99.90
14475;DHT22;7323;50.848;4.334;2023-02-28T12:39:15;5.30;99.90
14475;DHT22;7323;50.848;4.334;2023-02-28T12:41:56;5.30;99.90
14475;DHT22;7323;50.848;4.334;2023-02-28T12:44:29;5.40;99.90
14475;DHT22;7323;50.848;4.334;2023-02-28T12:47:04;5.40;99.90
14475;DHT22;7323;50.848;4.334;2023-02-28T12:49:41;5.40;99.90
14475;DHT22;7323;50.848;4.334;2023-02-28T12:52:16;5.60;99.90
14475;DHT22;7323;50.848;4.334;2023-02-28T12:55:05;5.60;99.90
14475;DHT22;7323;50.848;4.334;2023-02-28T12:57:50;5.80;67.20
14475;DHT22;7323;50.848;4.334;2023-02-28T13:00:22;5.80;80.50
14475;DHT22;7323;50.848;4.334;2023-02-28T13:11:38;5.80;17.50
14475;DHT22;7323;50.848;4.334;2023-02-28T13:14:29;5.80;13.80
14475;DHT22;7323;50.848;4.334;2023-02-28T13:17:11;5.70;13.50
14475;DHT22;7323;50.848;4.334;2023-02-28T13:22:39;5.70;1.00
14475;DHT22;7323;50.848;4.334;2023-02-28T13:28:10;5.70;1.00
14475;DHT22;7323;50.848;4.334;2023-02-28T13:36:10;5.50;1.00
14475;DHT22;7323;50.848;4.334;2023-02-28T13:38:48;5.40;1.00
14475;DHT22;7323;50.848;4.334;2023-02-28T13:44:09;5.50;1.00
14475;DHT22;7323;50.848;4.334;2023-02-28T13:47:16;5.60;1.00
14475;DHT22;7323;50.848;4.334;2023-02-28T13:51:52;5.70;1.00
14475;DHT22;7323;50.848;4.334;2023-02-28T14:05:35;5.70;1.00
14475;DHT22;7323;50.848;4.334;2023-02-28T14:08:20;5.80;1.00
14475;DHT22;7323;50.848;4.334;2023-02-28T14:11:05;5.80;1.00
14475;DHT22;7323;50.848;4.334;2023-02-28T14:13:44;6.00;1.00
14475;DHT22;7323;50.848;4.334;2023-02-28T14:16:15;6.10;1.00
14475;DHT22;7323;50.848;4.334;2023-02-28T14:18:51;6.00;1.00
14475;DHT22;7323;50.848;4.334;2023-02-28T14:21:31;5.90;1.00
14475;DHT22;7323;50.848;4.334;2023-02-28T14:24:30;5.90;1.00
14475;DHT22;7323;50.848;4.334;2023-02-28T14:27:16;5.90;1.00
14475;DHT22;7323;50.848;4.334;2023-02-28T14:32:47;6.00;1.00
14475;DHT22;7323;50.848;4.334;2023-02-28T14:38:07;6.00;1.00
14475;DHT22;7323;50.848;4.334;2023-02-28T14:40:43;6.10;1.00
14475;DHT22;7323;50.848;4.334;2023-02-28T14:43:25;6.10;1.00
14475;DHT22;7323;50.848;4.334;2023-02-28T14:45:57;6.20;1.00
14475;DHT22;7323;50.848;4.334;2023-02-28T14:48:24;6.10;1.00
14475;DHT22;7323;50.848;4.334;2023-02-28T14:50:59;5.90;1.00
14475;DHT22;7323;50.848;4.334;2023-02-28T14:53:30;5.90;1.00
14475;DHT22;7323;50.848;4.334;2023-02-28T14:56:01;6.00;1.00
14475;DHT22;7323;50.848;4.334;2023-02-28T14:58:31;6.20;1.00
14475;DHT22;7323;50.848;4.334;2023-02-28T15:00:59;6.30;1.00
14475;DHT22;7323;50.848;4.334;2023-02-28T15:03:32;6.30;1.00
14475;DHT22;7323;50.848;4.334;2023-02-28T15:06:11;6.00;1.00
14475;DHT22;7323;50.848;4.334;2023-02-28T15:08:46;6.10;1.00
14475;DHT22;7323;50.848;4.334;2023-02-28T15:11:20;6.80;1.00
14475;DHT22;7323;50.848;4.334;2023-02-28T15:13:51;7.70;1.00
14475;DHT22;7323;50.848;4.334;2023-02-28T15:16:30;8.20;1.00
14475;DHT22;7323;50.848;4.334;2023-02-28T15:19:24;8.30;1.00
14475;DHT22;7323;50.848;4.334;2023-02-28T15:22:13;8.00;1.00
14475;DHT22;7323;50.848;4.334;2023-02-28T15:24:45;7.90;1.00
14475;DHT22;7323;50.848;4.334;2023-02-28T15:27:26;8.30;1.00
14475;DHT22;7323;50.848;4.334;2023-02-28T15:30:04;8.80;1.00
14475;DHT22;7323;50.848;4.334;2023-02-28T15:32:38;9.10;1.00
14475;DHT22;7323;50.848;4.334;2023-02-28T15:35:37;8.90;1.00
14475;DHT22;7323;50.848;4.334;2023-02-28T15:38:23;9.10;1.00
14475;DHT22;7323;50.848;4.334;2023-02-28T15:40:52;9.40;1.00
14475;DHT22;7323;50.848;4.334;2023-02-28T15:43:28;9.40;1.00
14475;DHT22;7323;50.848;4.334;2023-02-28T15:46:10;9.10;1.00
14475;DHT22;7323;50.848;4.334;2023-02-28T15:48:54;9.50;1.00
14475;DHT22;7323;50.848;4.334;2023-02-28T15:51:32;9.00;1.00
14475;DHT22;7323;50.848;4.334;2023-02-28T15:54:06;8.50;1.00
14475;DHT22;7323;50.848;4.334;2023-02-28T15:56:43;8.60;1.00
14475;DHT22;7323;50.848;4.334;2023-02-28T15:59:29;8.60;1.00
14475;DHT22;7323;50.848;4.334;2023-02-28T16:02:20;9.30;1.00
14475;DHT22;7323;50.848;4.334;2023-02-28T16:07:59;9.10;1.00
14475;DHT22;7323;50.848;4.334;2023-02-28T16:10:32;9.20;1.00
14475;DHT22;7323;50.848;4.334;2023-02-28T16:12:58;8.70;1.00
14475;DHT22;7323;50.848;4.334;2023-02-28T16:15:27;8.60;1.00
14475;DHT22;7323;50.848;4.334;2023-02-28T16:17:54;8.80;1.00
14475;DHT22;7323;50.848;4.334;2023-02-28T16:20:27;9.20;1.00
14475;DHT22;7323;50.848;4.334;2023-02-28T16:22:53;9.20;1.00
14475;DHT22;7323;50.848;4.334;2023-02-28T16:25:33;9.40;1.00
14475;DHT22;7323;50.848;4.334;2023-02-28T16:27:59;8.90;1.00
14475;DHT22;7323;50.848;4.334;2023-02-28T16:30:27;8.40;1.00
14475;DHT22;7323;50.848;4.334;2023-02-28T16:32:58;8.20;1.00
14475;DHT22;7323;50.848;4.334;2023-02-28T16:35:26;8.40;1.00
14475;DHT22;7323;50.848;4.334;2023-02-28T16:37:52;8.60;1.00
14475;DHT22;7323;50.848;4.334;2023-02-28T16:40:22;8.40;1.00
14475;DHT22;7323;50.848;4.334;2023-02-28T16:42:54;8.40;1.00
14475;DHT22;7323;50.848;4.334;2023-02-28T16:45:26;8.20;1.00
14475;DHT22;7323;50.848;4.334;2023-02-28T16:47:53;8.00;1.00
14475;DHT22;7323;50.848;4.334;2023-02-28T16:50:25;7.70;1.00
14475;DHT22;7323;50.848;4.334;2023-02-28T16:52:52;7.60;1.00
14475;DHT22;7323;50.848;4.334;2023-02-28T16:55:39;7.60;1.00
14475;DHT22;7323;50.848;4.334;2023-02-28T16:58:06;7.60;1.00
14475;DHT22;7323;50.848;4.334;2023-02-28T17:00:36;7.40;1.00
14475;DHT22;7323;50.848;4.334;2023-02-28T17:03:02;7.40;1.00
14475;DHT22;7323;50.848;4.334;2023-02-28T17:05:41;7.40;1.00
14475;DHT22;7323;50.848;4.334;2023-02-28T17:08:08;7.20;1.00
14475;DHT22;7323;50.848;4.334;2023-02-28T17:10:35;6.90;1.00
14475;DHT22;7323;50.848;4.334;2023-02-28T17:13:01;6.60;1.00
14475;DHT22;7323;50.848;4.334;2023-02-28T17:15:26;6.30;1.00
14475;DHT22;7323;50.848;4.334;2023-02-28T17:17:52;6.00;49.10
14475;DHT22;7323;50.848;4.334;2023-02-28T17:20:20;5.80;99.90
14475;DHT22;7323;50.848;4.334;2023-02-28T17:22:55;5.80;99.90
14475;DHT22;7323;50.848;4.334;2023-02-28T17:25:21;5.70;99.90
14475;DHT22;7323;50.848;4.334;2023-02-28T17:27:49;5.70;99.90
14475;DHT22;7323;50.848;4.334;2023-02-28T17:30:23;5.50;99.90
14475;DHT22;7323;50.848;4.334;2023-02-28T17:32:49;5.60;99.90
14475;DHT22;7323;50.848;4.334;2023-02-28T17:35:15;5.40;99.90
14475;DHT22;7323;50.848;4.334;2023-02-28T17:37:41;5.40;99.90
14475;DHT22;7323;50.848;4.334;2023-02-28T17:40:14;5.50;99.90
14475;DHT22;7323;50.848;4.334;2023-02-28T17:42:44;5.40;99.90
14475;DHT22;7323;50.848;4.334;2023-02-28T17:45:27;5.40;99.90
14475;DHT22;7323;50.848;4.334;2023-02-28T17:47:52;5.50;99.90
14475;DHT22;7323;50.848;4.334;2023-02-28T17:50:20;5.30;99.90
14475;DHT22;7323;50.848;4.334;2023-02-28T17:52:48;5.20;99.90
14475;DHT22;7323;50.848;4.334;2023-02-28T17:55:17;5.20;99.90
14475;DHT22;7323;50.848;4.334;2023-02-28T17:57:50;5.20;99.90
14475;DHT22;7323;50.848;4.334;2023-02-28T18:00:16;5.20;99.90
14475;DHT22;7323;50.848;4.334;2023-02-28T18:02:43;5.20;99.90
14475;DHT22;7323;50.848;4.334;2023-02-28T18:05:09;5.20;1.00
14475;DHT22;7323;50.848;4.334;2023-02-28T18:07:37;5.20;1.00
14475;DHT22;7323;50.848;4.334;2023-02-28T18:10:09;5.20;1.00
14475;DHT22;7323;50.848;4.334;2023-02-28T18:12:40;5.00;1.00
14475;DHT22;7323;50.848;4.334;2023-02-28T18:15:06;5.10;1.00
14475;DHT22;7323;50.848;4.334;2023-02-28T18:17:32;5.00;1.00
14475;DHT22;7323;50.848;4.334;2023-02-28T18:20:14;5.00;1.00
14475;DHT22;7323;50.848;4.334;2023-02-28T18:22:41;5.00;1.00
14475;DHT22;7323;50.848;4.334;2023-02-28T18:25:10;5.00;1.00
14475;DHT22;7323;50.848;4.334;2023-02-28T18:27:39;5.00;1.00
14475;DHT22;7323;50.848;4.334;2023-02-28T18:30:06;5.00;1.00
14475;DHT22;7323;50.848;4.334;2023-02-28T18:32:35;5.00;1.00
14475;DHT22;7323;50.848;4.334;2023-02-28T18:35:00;4.90;1.00
14475;DHT22;7323;50.848;4.334;2023-02-28T18:37:27;5.10;1.00
14475;DHT22;7323;50.848;4.334;2023-02-28T18:40:06;5.10;1.00
14475;DHT22;7323;50.848;4.334;2023-02-28T18:42:37;5.10;1.00
14475;DHT22;7323;50.848;4.334;2023-02-28T18:45:06;5.10;1.00
14475;DHT22;7323;50.848;4.334;2023-02-28T18:47:35;5.00;1.00
14475;DHT22;7323;50.848;4.334;2023-02-28T18:50:01;5.10;1.00
14475;DHT22;7323;50.848;4.334;2023-02-28T18:52:27;5.10;1.00
14475;DHT22;7323;50.848;4.334;2023-02-28T18:54:53;5.10;1.00
14475;DHT22;7323;50.848;4.334;2023-02-28T18:57:19;5.20;1.00
14475;DHT22;7323;50.848;4.334;2023-02-28T18:59:44;5.10;1.00